createdAt,value
2023-02-24T00:22:19.735Z,46.63
2023-02-24T00:26:49.320Z,46.53
2023-02-24T00:32:01.519Z,46.62
2023-02-24T00:35:17.263Z,46.38
2023-02-24T00:38:26.932Z,45.67
2023-02-24T00:45:26.410Z,45.64
2023-02-24T00:48:32.742Z,45.66
2023-02-24T00:51:21.613Z,45.52
2023-02-24T00:58:48.070Z,45.69
2023-02-24T01:01:46.436Z,45.16
2023-02-24T01:10:42.861Z,45.42
2023-02-24T01:13:45.468Z,45.19
2023-02-24T01:16:53.152Z,45.23
2023-02-24T01:19:50.507Z,45.21
2023-02-24T01:23:18.941Z,45.26
2023-02-24T01:26:30.960Z,44.89
2023-02-24T01:29:40.358Z,45.57
2023-02-24T01:32:37.568Z,45.83
2023-02-24T01:35:33.980Z,44.60
2023-02-24T01:38:38.395Z,44.62
2023-02-24T01:41:46.970Z,44.74
2023-02-24T01:44:37.001Z,45.41
2023-02-24T01:47:37.230Z,44.65
2023-02-24T01:50:49.829Z,44.61
2023-02-24T01:54:13.289Z,44.69
2023-02-24T01:57:21.625Z,44.42
2023-02-24T02:00:49.077Z,45.05
2023-02-24T02:03:52.581Z,44.61
2023-02-24T02:10:40.417Z,44.37
2023-02-24T02:13:34.086Z,44.17
2023-02-24T02:16:54.672Z,44.04
2023-02-24T02:20:42.319Z,44.33
2023-02-24T02:23:50.178Z,44.10
2023-02-24T02:27:02.915Z,44.07
2023-02-24T02:30:24.936Z,44.04
2023-02-24T02:33:43.025Z,43.75
2023-02-24T02:36:30.346Z,43.81
2023-02-24T02:39:36.973Z,43.91
2023-02-24T02:42:49.567Z,43.97
2023-02-24T02:46:02.329Z,43.51
2023-02-24T02:49:22.469Z,43.25
2023-02-24T02:52:50.934Z,43.17
2023-02-24T02:56:34.127Z,43.43
2023-02-24T02:59:53.698Z,43.26
2023-02-24T03:03:15.024Z,42.94
2023-02-24T03:07:12.985Z,43.04
2023-02-24T03:10:38.573Z,42.84
2023-02-24T03:13:33.834Z,42.61
2023-02-24T03:16:21.338Z,42.70
2023-02-24T03:19:41.875Z,42.43
2023-02-24T03:23:14.086Z,42.35
2023-02-24T03:26:39.412Z,42.27
2023-02-24T03:30:21.519Z,42.14
2023-02-24T03:33:34.101Z,41.93
2023-02-24T03:36:37.147Z,42.39
2023-02-24T03:39:49.507Z,42.25
2023-02-24T03:42:43.337Z,41.98
2023-02-24T03:45:46.176Z,42.90
2023-02-24T03:48:49.904Z,42.07
2023-02-24T03:52:25.803Z,42.44
2023-02-24T03:59:26.072Z,42.28
2023-02-24T04:02:50.627Z,42.45
2023-02-24T04:07:02.866Z,42.43
2023-02-24T04:10:32.626Z,42.67
2023-02-24T04:18:06.706Z,42.79
2023-02-24T04:25:18.466Z,42.39
2023-02-24T04:28:35.486Z,42.29
2023-02-24T04:35:22.316Z,42.12
2023-02-24T04:38:26.680Z,42.07
2023-02-24T04:41:39.572Z,42.04
2023-02-24T04:45:11.017Z,42.12
2023-02-24T04:48:34.125Z,41.99
2023-02-24T04:51:23.225Z,41.75
2023-02-24T04:55:05.161Z,42.03
2023-02-24T04:58:25.763Z,42.02
2023-02-24T05:20:47.161Z,42.39
2023-02-24T06:15:13.836Z,45.72
2023-02-24T06:57:25.659Z,45.82
2023-02-24T07:01:39.928Z,45.57
2023-02-24T07:15:28.006Z,46.48
2023-02-24T08:51:54.188Z,45.93
2023-02-24T10:11:54.773Z,44.61
2023-02-24T10:49:09.414Z,41.96
2023-02-24T12:39:09.178Z,38.14
2023-02-24T12:43:00.891Z,38.29
2023-02-24T13:03:48.824Z,39.52
2023-02-24T13:13:09.286Z,38.90
2023-02-24T13:21:04.531Z,39.18
2023-02-24T13:25:05.627Z,38.70
2023-02-24T13:32:11.474Z,38.65
2023-02-24T13:35:50.431Z,38.31
2023-02-24T13:39:09.359Z,38.29
2023-02-24T13:42:50.727Z,38.30
2023-02-24T13:46:50.997Z,38.51
2023-02-24T14:03:39.530Z,38.70
2023-02-24T14:07:06.198Z,38.40
2023-02-24T14:11:03.694Z,38.35
2023-02-24T14:21:51.303Z,37.78
2023-02-24T14:25:18.811Z,37.78
2023-02-24T14:28:19.250Z,37.36
2023-02-24T14:36:05.616Z,37.29
2023-02-24T14:39:54.872Z,37.13
2023-02-24T14:43:19.218Z,37.01
2023-02-24T14:46:56.131Z,36.98
2023-02-24T14:50:50.997Z,36.72
2023-02-24T14:59:27.944Z,36.59
2023-02-24T15:16:03.836Z,36.85
2023-02-24T15:57:00.801Z,39.93
2023-02-24T16:04:50.241Z,39.16
2023-02-24T16:11:57.158Z,37.76
2023-02-24T16:16:28.012Z,37.29
2023-02-24T16:20:31.596Z,37.40
2023-02-24T16:23:31.534Z,36.94
2023-02-24T16:39:10.192Z,36.58
2023-02-24T16:46:58.442Z,36.58
2023-02-24T16:50:38.713Z,36.48
2023-02-24T16:53:50.907Z,36.35
2023-02-24T17:13:31.213Z,36.98
2023-02-24T17:21:18.887Z,36.02
2023-02-24T17:25:19.095Z,36.04
2023-02-24T17:28:55.546Z,35.88
2023-02-24T17:37:18.725Z,36.52
2023-02-24T17:40:05.418Z,35.80
2023-02-24T17:42:41.181Z,35.58
2023-02-24T17:45:17.046Z,35.84
2023-02-24T17:47:55.363Z,35.36
2023-02-24T17:50:33.769Z,35.36
2023-02-24T17:53:07.581Z,35.53
2023-02-24T17:55:52.614Z,35.51
2023-02-24T17:58:34.974Z,35.70
2023-02-24T18:01:14.059Z,35.57
2023-02-24T18:03:42.965Z,35.47
2023-02-24T18:06:15.101Z,35.44
2023-02-24T18:08:47.784Z,35.45
2023-02-24T18:11:21.416Z,35.41
2023-02-24T18:14:03.527Z,35.40
2023-02-24T18:16:37.742Z,35.48
2023-02-24T18:19:16.462Z,35.48
2023-02-24T18:21:47.429Z,35.64
2023-02-24T18:24:17.592Z,35.64
2023-02-24T18:26:50.267Z,35.75
2023-02-24T18:29:19.550Z,35.83
2023-02-24T18:31:54.060Z,35.86
2023-02-24T18:34:30.668Z,35.90
2023-02-24T18:37:05.387Z,35.88
2023-02-24T18:39:35.297Z,35.85
2023-02-24T18:42:14.385Z,35.90
2023-02-24T18:44:46.287Z,35.80
2023-02-24T18:47:15.758Z,35.70
2023-02-24T18:49:47.299Z,35.54
2023-02-24T18:52:18.117Z,35.44
2023-02-24T18:59:15.316Z,35.80
2023-02-24T19:01:54.794Z,35.66
2023-02-24T19:04:37.830Z,35.47
2023-02-24T19:07:10.066Z,35.42
2023-02-24T19:09:43.020Z,35.43
2023-02-24T19:12:25.512Z,35.52
2023-02-24T19:14:56.912Z,35.47
2023-02-24T19:17:37.456Z,35.39
2023-02-24T19:20:14.301Z,35.27
2023-02-24T19:22:51.610Z,35.31
2023-02-24T19:25:34.366Z,35.31
2023-02-24T19:28:33.355Z,35.45
2023-02-24T19:31:39.137Z,35.67
2023-02-24T19:34:17.411Z,35.55
2023-02-24T19:36:50.345Z,35.34
2023-02-24T19:39:34.825Z,35.12
2023-02-24T19:42:25.967Z,35.21
2023-02-24T19:45:10.959Z,35.17
2023-02-24T19:47:49.207Z,35.06
2023-02-24T19:50:23.207Z,34.90
2023-02-24T19:53:06.179Z,34.86
2023-02-24T19:55:38.988Z,35.05
2023-02-24T19:58:19.100Z,34.91
2023-02-24T20:00:54.143Z,34.81
2023-02-24T20:03:34.347Z,34.88
2023-02-24T20:06:37.135Z,35.33
2023-02-24T20:09:13.942Z,35.07
2023-02-24T20:11:51.144Z,34.99
2023-02-24T20:14:37.510Z,34.88
2023-02-24T20:17:14.986Z,35.09
2023-02-24T20:19:51.782Z,35.03
2023-02-24T20:22:25.503Z,35.07
2023-02-24T20:24:59.347Z,35.08
2023-02-24T20:27:35.078Z,35.08
2023-02-24T20:30:22.805Z,35.13
2023-02-24T20:33:02.773Z,34.61
2023-02-24T20:35:48.977Z,34.67
2023-02-24T20:38:27.458Z,34.55
2023-02-24T20:41:19.070Z,34.64
2023-02-24T20:47:10.690Z,34.98
2023-02-24T20:49:52.559Z,34.92
2023-02-24T20:52:25.587Z,34.89
2023-02-24T20:54:59.680Z,34.82
2023-02-24T20:57:45.784Z,34.76
2023-02-24T21:00:31.262Z,34.68
2023-02-24T21:03:17.850Z,34.59
2023-02-24T21:06:01.464Z,34.52
2023-02-24T21:08:42.789Z,34.28
2023-02-24T21:11:16.896Z,35.36
2023-02-24T21:13:51.649Z,34.42
2023-02-24T21:16:37.920Z,34.33
2023-02-24T21:19:10.643Z,34.25
2023-02-24T21:21:45.464Z,34.81
2023-02-24T21:24:14.966Z,34.89
2023-02-24T21:26:49.645Z,34.70
2023-02-24T21:29:22.386Z,34.66
2023-02-24T21:31:52.678Z,34.54
2023-02-24T21:34:37.305Z,34.49
2023-02-24T21:37:09.804Z,34.26
2023-02-24T21:39:42.717Z,34.52
2023-02-24T21:42:14.014Z,34.41
2023-02-24T21:44:46.227Z,33.97
2023-02-24T21:47:17.905Z,34.91
2023-02-24T21:49:54.877Z,34.31
2023-02-24T21:52:37.674Z,33.92
2023-02-24T21:55:22.953Z,33.90
2023-02-24T21:58:07.167Z,33.90
2023-02-24T22:00:47.283Z,33.93
2023-02-24T22:03:19.071Z,33.94
2023-02-24T22:05:54.562Z,33.86
2023-02-24T22:08:45.989Z,34.03
2023-02-24T22:11:30.446Z,35.16
2023-02-24T22:14:35.108Z,34.43
2023-02-24T22:17:07.188Z,34.21
2023-02-24T22:19:43.481Z,34.02
2023-02-24T22:22:15.754Z,33.82
2023-02-24T22:24:49.814Z,33.72
2023-02-24T22:27:22.489Z,33.63
2023-02-24T22:30:15.102Z,33.59
2023-02-24T22:32:50.213Z,33.70
2023-02-24T22:35:23.650Z,33.60
2023-02-24T22:38:10.690Z,33.47
2023-02-24T22:40:46.605Z,33.53
2023-02-24T22:43:17.661Z,33.47
2023-02-24T22:46:07.655Z,33.50
2023-02-24T22:48:53.858Z,33.72
2023-02-24T22:51:31.301Z,33.57
2023-02-24T22:54:15.420Z,33.52
2023-02-24T22:57:07.174Z,33.51
2023-02-24T22:59:51.567Z,33.49
2023-02-24T23:02:26.304Z,33.39
2023-02-24T23:05:39.043Z,33.57
2023-02-24T23:08:26.236Z,33.49
2023-02-24T23:12:18.377Z,33.65
2023-02-24T23:15:07.217Z,33.53
2023-02-24T23:18:15.554Z,33.63
2023-02-24T23:21:30.491Z,33.71
2023-02-24T23:28:05.750Z,33.95
2023-02-24T23:30:54.856Z,33.37
2023-02-24T23:33:54.802Z,33.57
2023-02-24T23:37:05.067Z,33.29
2023-02-24T23:39:43.577Z,33.72
2023-02-24T23:42:19.366Z,33.74
2023-02-24T23:45:14.995Z,33.79
2023-02-24T23:48:05.520Z,33.71
2023-02-24T23:55:14.313Z,34.05
2023-02-24T23:57:56.125Z,33.81
